• Join FlightAware (Why Join?)
  • Login
  • US Flag 
05:55AM EST


 

Airport Tracker/Info


-or-


 

Live Flight TrackerFlight Track Log ✈ N210CM ✈ 18-Apr-2013 ✈ KAGS - OINR / RZR

Flight Track Log - Related Links

Times and Time Zones

All times are in EDT time to prevent confusion due to time zone crossing. See the N210CM flight status page for this flight to view local times or setup timezone preferences in your user account.

Time Position Orientation Groundspeed Altitude Reporting Facility
EDT Latitude Longitude Course Direction KTS MPH feet Rate Location/Type
04:48PM 33.3075 -81.9931 301° West 165 190 20,000  Level Atlanta Center
04:49PM 33.3381 -82.0719 295° West 160 184 6,100 -5,520 Descending Atlanta Center
04:50PM 33.3853 -82.1506 306° West 199 229 9,000 2,400 Climbing Atlanta Center
04:51PM 33.4303 -82.2267 305° West 254 292 11,000 1,860 Climbing Atlanta Center
04:52PM 33.4775 -82.3153 303° West 296 341 12,800 1,740 Climbing Atlanta Center
04:53PM 33.6055 -82.4109 301° West  Level FlightAware Approximate
04:53PM 33.5331 -82.4089 305° West 318 366 14,500  Level Atlanta Center
04:54PM 33.6445 -82.4889 301° West  Level FlightAware Approximate
04:54PM 33.5864 -82.4978 306° West 324 373 16,300  Level Atlanta Center
04:55PM 33.6353 -82.5867 303° West 324 373 17,900 1,620 Climbing Atlanta Center
04:56PM 33.6844 -82.6758 304° West 324 373 19,600 1,020 Climbing Atlanta Center
04:57PM 33.7356 -82.7697 303° West 329 379 20,000 180 Climbing Atlanta Center
04:58PM 33.7928 -82.8714 304° West 350 403 20,000  Level Atlanta Center
04:59PM 33.8522 -82.9733 305° West 372 428 20,000  Level Atlanta Center
05:00PM 33.9261 -83.0575 317° Northwest 372 428 20,000  Level Atlanta Center
05:01PM 34.0122 -83.1367 323° Northwest 379 436 20,000  Level Atlanta Center
05:02PM 34.0961 -83.2186 321° Northwest 379 436 20,000  Level Atlanta Center
05:03PM 34.1822 -83.3006 322° Northwest 390 449 20,000  Level Atlanta Center
05:04PM 34.2536 -83.3728 320° Northwest 384 442 20,000  Level Atlanta Center
05:05PM 34.3397 -83.4603 320° Northwest 384 442 20,000  Level Atlanta Center
05:06PM 34.4214 -83.5378 322° Northwest 384 442 20,000  Level Atlanta Center
05:07PM 34.5031 -83.6203 320° Northwest 384 442 20,000  Level Atlanta Center
05:08PM 34.5722 -83.7133 312° West 371 427 20,000  Level Atlanta Center
05:09PM 34.6331 -83.8167 306° West 376 433 20,000 -840 Level Atlanta Center
05:10PM 34.6936 -83.9275 304° West 376 433 18,400 -2,040 Descending Atlanta Center
05:11PM 34.7458 -84.0136 306° West 346 398 16,000 -2,460 Descending Atlanta Center
05:12PM 34.7939 -84.0944 306° West 314 361 13,500 -2,460 Descending Atlanta Center
05:13PM 34.8419 -84.1728 307° West 300 345 11,100 -2,400 Descending Atlanta Center
05:14PM 34.8878 -84.2464 307° West 288 331 8,700 -2,460 Descending Atlanta Center
05:15PM 34.9333 -84.3275 304° West 283 326 6,200 -1,380 Descending Atlanta Center
05:16PM 34.9769 -84.4039 305° West 288 331 6,000 -120 Descending Atlanta Center
05:17PM 35.0247 -84.4825 307° West 288 331 6,000  Level Atlanta Center
05:18PM 35.0703 -84.5614 305° West 288 331 6,000  Level Atlanta Center
05:19PM 35.1139 -84.6356 306° West 282 325 6,000 -540 Level Atlanta Center
05:20PM 35.1469 -84.6942 305° West 277 319 5,000  Descending Atlanta Center
05:21PM 35.1925 -84.7783 304° West 277 319 6,000 480 Climbing Atlanta Center
05:22PM 35.2336 -84.8550 303° West 277 319 6,000  Level Atlanta Center
05:23PM 35.2667 -84.9164 303° West 277 319 6,000  Level Atlanta Center
05:25PM 35.2667 -84.9164 165° South 277 319 6,000  Level Atlanta Center